sensor_id;sensor_type;location;lat;lon;timestamp;P1;durP1;ratioP1;P2;durP2;ratioP2
69280;SDS011;56392;51.082;17.080;2023-06-05T00:02:38;8.32;;;2.08;;
69280;SDS011;56392;51.082;17.080;2023-06-05T00:08:04;6.13;;;2.00;;
69280;SDS011;56392;51.082;17.080;2023-06-05T00:13:28;7.23;;;1.87;;
69280;SDS011;56392;51.082;17.080;2023-06-05T00:18:51;7.97;;;2.20;;
69280;SDS011;56392;51.082;17.080;2023-06-05T00:24:14;6.55;;;1.85;;
69280;SDS011;56392;51.082;17.080;2023-06-05T00:29:39;6.03;;;1.90;;
69280;SDS011;56392;51.082;17.080;2023-06-05T00:35:02;6.40;;;2.00;;
69280;SDS011;56392;51.082;17.080;2023-06-05T00:40:25;6.75;;;2.13;;
69280;SDS011;56392;51.082;17.080;2023-06-05T00:45:50;7.93;;;2.20;;
69280;SDS011;56392;51.082;17.080;2023-06-05T00:51:19;6.65;;;2.20;;
69280;SDS011;56392;51.082;17.080;2023-06-05T00:56:42;8.35;;;2.35;;
69280;SDS011;56392;51.082;17.080;2023-06-05T01:02:07;8.87;;;2.00;;
69280;SDS011;56392;51.082;17.080;2023-06-05T01:07:31;6.43;;;2.20;;
69280;SDS011;56392;51.082;17.080;2023-06-05T01:12:57;6.07;;;1.88;;
69280;SDS011;56392;51.082;17.080;2023-06-05T01:18:28;7.45;;;2.10;;
69280;SDS011;56392;51.082;17.080;2023-06-05T01:23:53;6.73;;;1.90;;
69280;SDS011;56392;51.082;17.080;2023-06-05T01:29:16;8.20;;;1.90;;
69280;SDS011;56392;51.082;17.080;2023-06-05T01:34:39;7.60;;;2.22;;
69280;SDS011;56392;51.082;17.080;2023-06-05T01:40:06;6.47;;;2.10;;
69280;SDS011;56392;51.082;17.080;2023-06-05T01:45:33;6.43;;;2.17;;
69280;SDS011;56392;51.082;17.080;2023-06-05T01:50:58;6.38;;;2.05;;
69280;SDS011;56392;51.082;17.080;2023-06-05T01:56:23;7.63;;;2.17;;
69280;SDS011;56392;51.082;17.080;2023-06-05T02:01:46;10.70;;;2.40;;
69280;SDS011;56392;51.082;17.080;2023-06-05T02:07:10;11.32;;;2.33;;
69280;SDS011;56392;51.082;17.080;2023-06-05T02:12:35;7.53;;;2.30;;
69280;SDS011;56392;51.082;17.080;2023-06-05T02:17:59;7.07;;;2.20;;
69280;SDS011;56392;51.082;17.080;2023-06-05T02:23:24;7.70;;;2.42;;
69280;SDS011;56392;51.082;17.080;2023-06-05T02:28:49;9.82;;;2.30;;
69280;SDS011;56392;51.082;17.080;2023-06-05T02:34:13;9.57;;;2.73;;
69280;SDS011;56392;51.082;17.080;2023-06-05T02:39:38;7.28;;;1.92;;
69280;SDS011;56392;51.082;17.080;2023-06-05T02:45:02;6.78;;;1.92;;
69280;SDS011;56392;51.082;17.080;2023-06-05T02:50:26;10.67;;;2.30;;
69280;SDS011;56392;51.082;17.080;2023-06-05T02:55:50;7.70;;;2.13;;
69280;SDS011;56392;51.082;17.080;2023-06-05T03:01:15;5.93;;;2.15;;
69280;SDS011;56392;51.082;17.080;2023-06-05T03:06:39;7.43;;;2.13;;
69280;SDS011;56392;51.082;17.080;2023-06-05T03:12:05;6.30;;;1.87;;
69280;SDS011;56392;51.082;17.080;2023-06-05T03:17:29;8.35;;;2.17;;
69280;SDS011;56392;51.082;17.080;2023-06-05T03:22:53;6.68;;;2.00;;
69280;SDS011;56392;51.082;17.080;2023-06-05T03:28:18;6.27;;;1.90;;
69280;SDS011;56392;51.082;17.080;2023-06-05T03:33:43;6.70;;;2.28;;
69280;SDS011;56392;51.082;17.080;2023-06-05T03:39:06;7.97;;;2.50;;
69280;SDS011;56392;51.082;17.080;2023-06-05T03:44:29;7.93;;;2.00;;
69280;SDS011;56392;51.082;17.080;2023-06-05T03:49:53;7.83;;;2.20;;
69280;SDS011;56392;51.082;17.080;2023-06-05T03:55:17;6.88;;;2.20;;
69280;SDS011;56392;51.082;17.080;2023-06-05T04:00:40;6.38;;;2.10;;
69280;SDS011;56392;51.082;17.080;2023-06-05T04:06:05;6.80;;;2.30;;
69280;SDS011;56392;51.082;17.080;2023-06-05T04:11:30;7.22;;;2.55;;
69280;SDS011;56392;51.082;17.080;2023-06-05T04:16:54;7.05;;;2.40;;
69280;SDS011;56392;51.082;17.080;2023-06-05T04:22:18;7.87;;;2.50;;
69280;SDS011;56392;51.082;17.080;2023-06-05T04:27:42;11.98;;;2.75;;
69280;SDS011;56392;51.082;17.080;2023-06-05T04:33:06;8.68;;;2.58;;
69280;SDS011;56392;51.082;17.080;2023-06-05T04:38:31;9.03;;;2.30;;
69280;SDS011;56392;51.082;17.080;2023-06-05T04:43:55;6.53;;;2.30;;
69280;SDS011;56392;51.082;17.080;2023-06-05T04:49:19;11.40;;;3.83;;
69280;SDS011;56392;51.082;17.080;2023-06-05T04:54:43;8.00;;;2.30;;
69280;SDS011;56392;51.082;17.080;2023-06-05T05:00:07;6.93;;;2.17;;
69280;SDS011;56392;51.082;17.080;2023-06-05T05:05:32;8.75;;;2.65;;
69280;SDS011;56392;51.082;17.080;2023-06-05T05:10:58;8.10;;;2.50;;
69280;SDS011;56392;51.082;17.080;2023-06-05T05:16:23;9.50;;;2.37;;
69280;SDS011;56392;51.082;17.080;2023-06-05T05:21:46;6.18;;;2.20;;
69280;SDS011;56392;51.082;17.080;2023-06-05T05:27:10;6.78;;;2.40;;
69280;SDS011;56392;51.082;17.080;2023-06-05T05:32:33;6.47;;;2.20;;
69280;SDS011;56392;51.082;17.080;2023-06-05T05:37:57;7.23;;;2.53;;
69280;SDS011;56392;51.082;17.080;2023-06-05T05:43:22;7.03;;;2.30;;
69280;SDS011;56392;51.082;17.080;2023-06-05T05:48:46;11.25;;;2.65;;
69280;SDS011;56392;51.082;17.080;2023-06-05T05:54:09;7.57;;;2.40;;
69280;SDS011;56392;51.082;17.080;2023-06-05T05:59:34;8.48;;;2.40;;
69280;SDS011;56392;51.082;17.080;2023-06-05T06:04:57;7.43;;;2.38;;
69280;SDS011;56392;51.082;17.080;2023-06-05T06:10:20;9.97;;;2.20;;
69280;SDS011;56392;51.082;17.080;2023-06-05T06:15:45;11.90;;;2.47;;
69280;SDS011;56392;51.082;17.080;2023-06-05T06:21:10;9.35;;;2.97;;
69280;SDS011;56392;51.082;17.080;2023-06-05T06:26:33;8.47;;;2.53;;
69280;SDS011;56392;51.082;17.080;2023-06-05T06:31:59;11.83;;;2.60;;
69280;SDS011;56392;51.082;17.080;2023-06-05T06:37:22;11.93;;;2.88;;
69280;SDS011;56392;51.082;17.080;2023-06-05T06:42:45;9.88;;;2.60;;
69280;SDS011;56392;51.082;17.080;2023-06-05T06:48:10;10.80;;;2.30;;
69280;SDS011;56392;51.082;17.080;2023-06-05T06:53:33;10.98;;;2.55;;
69280;SDS011;56392;51.082;17.080;2023-06-05T06:58:56;8.10;;;2.30;;
69280;SDS011;56392;51.082;17.080;2023-06-05T07:04:20;9.27;;;2.27;;
69280;SDS011;56392;51.082;17.080;2023-06-05T07:09:44;8.13;;;2.40;;
69280;SDS011;56392;51.082;17.080;2023-06-05T07:15:08;9.95;;;2.50;;
69280;SDS011;56392;51.082;17.080;2023-06-05T07:20:33;7.10;;;2.43;;
69280;SDS011;56392;51.082;17.080;2023-06-05T07:25:58;10.63;;;2.40;;
69280;SDS011;56392;51.082;17.080;2023-06-05T07:31:21;8.52;;;2.28;;
69280;SDS011;56392;51.082;17.080;2023-06-05T07:36:46;8.88;;;2.40;;
69280;SDS011;56392;51.082;17.080;2023-06-05T07:42:11;12.30;;;2.27;;
69280;SDS011;56392;51.082;17.080;2023-06-05T07:47:34;10.68;;;2.40;;
69280;SDS011;56392;51.082;17.080;2023-06-05T07:52:59;7.55;;;2.15;;
69280;SDS011;56392;51.082;17.080;2023-06-05T07:58:22;8.67;;;2.43;;
69280;SDS011;56392;51.082;17.080;2023-06-05T08:03:45;6.72;;;2.08;;
69280;SDS011;56392;51.082;17.080;2023-06-05T08:09:10;7.25;;;2.00;;
69280;SDS011;56392;51.082;17.080;2023-06-05T08:14:34;9.37;;;2.13;;
69280;SDS011;56392;51.082;17.080;2023-06-05T08:19:58;7.77;;;2.10;;
69280;SDS011;56392;51.082;17.080;2023-06-05T08:25:22;5.63;;;1.70;;
69280;SDS011;56392;51.082;17.080;2023-06-05T08:30:46;7.20;;;1.65;;
69280;SDS011;56392;51.082;17.080;2023-06-05T08:36:09;6.80;;;1.90;;
69280;SDS011;56392;51.082;17.080;2023-06-05T08:41:34;5.82;;;1.60;;
69280;SDS011;56392;51.082;17.080;2023-06-05T08:47:00;7.93;;;1.80;;
69280;SDS011;56392;51.082;17.080;2023-06-05T08:52:26;9.20;;;1.90;;
69280;SDS011;56392;51.082;17.080;2023-06-05T08:57:52;7.75;;;1.90;;
69280;SDS011;56392;51.082;17.080;2023-06-05T09:03:17;7.57;;;1.83;;
69280;SDS011;56392;51.082;17.080;2023-06-05T09:08:41;6.15;;;1.70;;
69280;SDS011;56392;51.082;17.080;2023-06-05T09:14:07;6.57;;;1.50;;
69280;SDS011;56392;51.082;17.080;2023-06-05T09:19:35;11.80;;;1.83;;
69280;SDS011;56392;51.082;17.080;2023-06-05T09:24:58;7.47;;;1.77;;
69280;SDS011;56392;51.082;17.080;2023-06-05T09:30:25;6.40;;;1.63;;
69280;SDS011;56392;51.082;17.080;2023-06-05T09:35:48;10.50;;;1.70;;
69280;SDS011;56392;51.082;17.080;2023-06-05T09:41:24;6.90;;;1.60;;
69280;SDS011;56392;51.082;17.080;2023-06-05T09:46:56;7.13;;;1.73;;
69280;SDS011;56392;51.082;17.080;2023-06-05T09:52:20;5.85;;;1.55;;
69280;SDS011;56392;51.082;17.080;2023-06-05T09:57:43;8.90;;;1.80;;
69280;SDS011;56392;51.082;17.080;2023-06-05T10:03:10;11.30;;;1.73;;
69280;SDS011;56392;51.082;17.080;2023-06-05T10:08:36;8.03;;;3.17;;
69280;SDS011;56392;51.082;17.080;2023-06-05T10:14:00;5.35;;;1.80;;
69280;SDS011;56392;51.082;17.080;2023-06-05T10:19:26;6.60;;;1.65;;
69280;SDS011;56392;51.082;17.080;2023-06-05T10:24:51;8.37;;;2.07;;
69280;SDS011;56392;51.082;17.080;2023-06-05T10:36:27;5.75;;;1.60;;
69280;SDS011;56392;51.082;17.080;2023-06-05T10:42:02;6.30;;;1.70;;
69280;SDS011;56392;51.082;17.080;2023-06-05T10:59:11;5.63;;;1.70;;
69280;SDS011;56392;51.082;17.080;2023-06-05T11:10:35;6.70;;;1.88;;
69280;SDS011;56392;51.082;17.080;2023-06-05T11:15:59;5.85;;;1.83;;
69280;SDS011;56392;51.082;17.080;2023-06-05T11:21:22;7.03;;;2.00;;
69280;SDS011;56392;51.082;17.080;2023-06-05T11:27:06;6.70;;;2.05;;
69280;SDS011;56392;51.082;17.080;2023-06-05T11:32:50;5.63;;;1.88;;
69280;SDS011;56392;51.082;17.080;2023-06-05T11:38:14;6.10;;;2.00;;
69280;SDS011;56392;51.082;17.080;2023-06-05T11:43:43;6.07;;;1.85;;
69280;SDS011;56392;51.082;17.080;2023-06-05T11:49:09;6.35;;;1.80;;
69280;SDS011;56392;51.082;17.080;2023-06-05T11:54:47;6.28;;;1.75;;
69280;SDS011;56392;51.082;17.080;2023-06-05T12:00:28;7.57;;;1.80;;
69280;SDS011;56392;51.082;17.080;2023-06-05T12:05:52;7.30;;;1.83;;
69280;SDS011;56392;51.082;17.080;2023-06-05T12:11:19;6.00;;;1.83;;
69280;SDS011;56392;51.082;17.080;2023-06-05T12:16:45;7.73;;;1.70;;
69280;SDS011;56392;51.082;17.080;2023-06-05T12:22:09;6.97;;;1.80;;
69280;SDS011;56392;51.082;17.080;2023-06-05T12:27:32;5.55;;;1.83;;
69280;SDS011;56392;51.082;17.080;2023-06-05T12:33:04;7.27;;;1.70;;
69280;SDS011;56392;51.082;17.080;2023-06-05T12:38:28;9.02;;;1.95;;
69280;SDS011;56392;51.082;17.080;2023-06-05T12:44:00;7.28;;;2.05;;
69280;SDS011;56392;51.082;17.080;2023-06-05T12:49:28;7.18;;;1.90;;
69280;SDS011;56392;51.082;17.080;2023-06-05T12:54:51;6.47;;;1.77;;
69280;SDS011;56392;51.082;17.080;2023-06-05T13:00:14;6.07;;;1.90;;
69280;SDS011;56392;51.082;17.080;2023-06-05T13:05:42;7.50;;;2.00;;
69280;SDS011;56392;51.082;17.080;2023-06-05T13:11:05;9.33;;;2.30;;
69280;SDS011;56392;51.082;17.080;2023-06-05T13:16:29;7.78;;;2.10;;
69280;SDS011;56392;51.082;17.080;2023-06-05T13:21:54;7.45;;;2.10;;
69280;SDS011;56392;51.082;17.080;2023-06-05T13:27:17;7.90;;;2.00;;
69280;SDS011;56392;51.082;17.080;2023-06-05T13:32:41;6.30;;;1.90;;
69280;SDS011;56392;51.082;17.080;2023-06-05T13:38:07;5.50;;;1.85;;
69280;SDS011;56392;51.082;17.080;2023-06-05T13:43:30;5.90;;;1.70;;
69280;SDS011;56392;51.082;17.080;2023-06-05T13:48:54;8.23;;;1.90;;
69280;SDS011;56392;51.082;17.080;2023-06-05T13:54:20;7.80;;;1.75;;
69280;SDS011;56392;51.082;17.080;2023-06-05T13:59:43;7.22;;;2.10;;
69280;SDS011;56392;51.082;17.080;2023-06-05T14:05:07;6.57;;;1.93;;
69280;SDS011;56392;51.082;17.080;2023-06-05T14:10:33;9.52;;;2.20;;
69280;SDS011;56392;51.082;17.080;2023-06-05T14:15:57;5.55;;;1.80;;
69280;SDS011;56392;51.082;17.080;2023-06-05T14:21:21;6.00;;;1.80;;
69280;SDS011;56392;51.082;17.080;2023-06-05T14:26:45;6.22;;;1.90;;
69280;SDS011;56392;51.082;17.080;2023-06-05T14:32:08;5.18;;;1.77;;
69280;SDS011;56392;51.082;17.080;2023-06-05T14:37:31;6.72;;;2.05;;
69280;SDS011;56392;51.082;17.080;2023-06-05T14:42:56;9.53;;;2.00;;
69280;SDS011;56392;51.082;17.080;2023-06-05T14:48:19;8.77;;;1.80;;
69280;SDS011;56392;51.082;17.080;2023-06-05T14:53:42;5.70;;;1.80;;
69280;SDS011;56392;51.082;17.080;2023-06-05T14:59:06;5.93;;;1.90;;
69280;SDS011;56392;51.082;17.080;2023-06-05T15:04:29;5.95;;;2.10;;
69280;SDS011;56392;51.082;17.080;2023-06-05T15:09:52;7.05;;;1.83;;
69280;SDS011;56392;51.082;17.080;2023-06-05T15:15:17;7.73;;;2.10;;
69280;SDS011;56392;51.082;17.080;2023-06-05T15:20:40;7.75;;;2.03;;
69280;SDS011;56392;51.082;17.080;2023-06-05T15:26:03;6.43;;;1.88;;
69280;SDS011;56392;51.082;17.080;2023-06-05T15:31:28;5.88;;;1.90;;
69280;SDS011;56392;51.082;17.080;2023-06-05T15:36:51;8.00;;;2.20;;
69280;SDS011;56392;51.082;17.080;2023-06-05T15:42:17;7.50;;;2.05;;
69280;SDS011;56392;51.082;17.080;2023-06-05T15:47:42;6.72;;;2.10;;
69280;SDS011;56392;51.082;17.080;2023-06-05T15:53:06;7.57;;;2.20;;
69280;SDS011;56392;51.082;17.080;2023-06-05T15:58:29;6.75;;;2.17;;
69280;SDS011;56392;51.082;17.080;2023-06-05T16:03:54;8.45;;;2.40;;
69280;SDS011;56392;51.082;17.080;2023-06-05T16:09:17;6.07;;;1.87;;
69280;SDS011;56392;51.082;17.080;2023-06-05T16:14:40;7.78;;;2.10;;
69280;SDS011;56392;51.082;17.080;2023-06-05T16:20:08;8.80;;;2.10;;
69280;SDS011;56392;51.082;17.080;2023-06-05T16:25:32;7.18;;;2.03;;
69280;SDS011;56392;51.082;17.080;2023-06-05T16:30:55;5.77;;;1.90;;
69280;SDS011;56392;51.082;17.080;2023-06-05T16:36:20;7.82;;;2.22;;
69280;SDS011;56392;51.082;17.080;2023-06-05T16:41:43;6.20;;;1.95;;
69280;SDS011;56392;51.082;17.080;2023-06-05T16:47:07;6.47;;;2.00;;
69280;SDS011;56392;51.082;17.080;2023-06-05T16:52:31;7.03;;;1.95;;
69280;SDS011;56392;51.082;17.080;2023-06-05T16:57:54;7.47;;;2.00;;
69280;SDS011;56392;51.082;17.080;2023-06-05T17:03:17;6.43;;;2.10;;
69280;SDS011;56392;51.082;17.080;2023-06-05T17:08:45;10.98;;;2.30;;
69280;SDS011;56392;51.082;17.080;2023-06-05T17:14:08;8.70;;;2.20;;
69280;SDS011;56392;51.082;17.080;2023-06-05T17:19:31;6.88;;;2.20;;
69280;SDS011;56392;51.082;17.080;2023-06-05T17:24:56;5.67;;;1.90;;
69280;SDS011;56392;51.082;17.080;2023-06-05T17:30:20;6.22;;;1.90;;
69280;SDS011;56392;51.082;17.080;2023-06-05T17:35:43;9.45;;;2.00;;
69280;SDS011;56392;51.082;17.080;2023-06-05T17:41:07;6.10;;;2.33;;
69280;SDS011;56392;51.082;17.080;2023-06-05T17:46:30;13.52;;;2.13;;
69280;SDS011;56392;51.082;17.080;2023-06-05T17:51:53;10.75;;;2.00;;
69280;SDS011;56392;51.082;17.080;2023-06-05T17:57:19;12.17;;;2.27;;
69280;SDS011;56392;51.082;17.080;2023-06-05T18:02:42;12.07;;;2.40;;
69280;SDS011;56392;51.082;17.080;2023-06-05T18:08:05;11.57;;;2.22;;
69280;SDS011;56392;51.082;17.080;2023-06-05T18:13:29;16.27;;;2.35;;
69280;SDS011;56392;51.082;17.080;2023-06-05T18:18:53;13.80;;;2.60;;
69280;SDS011;56392;51.082;17.080;2023-06-05T18:24:16;17.50;;;2.78;;
69280;SDS011;56392;51.082;17.080;2023-06-05T18:29:41;18.05;;;2.50;;
69280;SDS011;56392;51.082;17.080;2023-06-05T18:35:05;11.50;;;2.50;;
69280;SDS011;56392;51.082;17.080;2023-06-05T18:40:32;13.65;;;2.47;;
69280;SDS011;56392;51.082;17.080;2023-06-05T18:45:57;12.95;;;2.58;;
69280;SDS011;56392;51.082;17.080;2023-06-05T18:51:23;12.00;;;2.30;;
69280;SDS011;56392;51.082;17.080;2023-06-05T18:56:46;6.70;;;2.28;;
69280;SDS011;56392;51.082;17.080;2023-06-05T19:02:11;6.90;;;2.22;;
69280;SDS011;56392;51.082;17.080;2023-06-05T19:07:34;10.73;;;2.75;;
69280;SDS011;56392;51.082;17.080;2023-06-05T19:12:57;9.90;;;3.10;;
69280;SDS011;56392;51.082;17.080;2023-06-05T19:18:23;11.07;;;3.17;;
69280;SDS011;56392;51.082;17.080;2023-06-05T19:23:46;12.52;;;3.20;;
69280;SDS011;56392;51.082;17.080;2023-06-05T19:29:09;10.30;;;3.30;;
69280;SDS011;56392;51.082;17.080;2023-06-05T19:34:34;9.65;;;3.00;;
69280;SDS011;56392;51.082;17.080;2023-06-05T19:39:59;8.65;;;3.10;;
69280;SDS011;56392;51.082;17.080;2023-06-05T19:45:22;9.07;;;3.20;;
69280;SDS011;56392;51.082;17.080;2023-06-05T19:50:47;12.30;;;3.72;;
69280;SDS011;56392;51.082;17.080;2023-06-05T19:56:10;10.52;;;3.50;;
69280;SDS011;56392;51.082;17.080;2023-06-05T20:01:38;9.50;;;3.80;;
69280;SDS011;56392;51.082;17.080;2023-06-05T20:07:05;10.60;;;3.90;;
69280;SDS011;56392;51.082;17.080;2023-06-05T20:12:28;9.30;;;3.50;;
69280;SDS011;56392;51.082;17.080;2023-06-05T20:17:52;8.65;;;3.40;;
69280;SDS011;56392;51.082;17.080;2023-06-05T20:23:17;9.97;;;3.47;;
69280;SDS011;56392;51.082;17.080;2023-06-05T20:28:41;10.32;;;3.70;;
69280;SDS011;56392;51.082;17.080;2023-06-05T20:34:04;12.95;;;4.10;;
69280;SDS011;56392;51.082;17.080;2023-06-05T20:39:28;9.07;;;3.83;;
69280;SDS011;56392;51.082;17.080;2023-06-05T20:44:52;11.27;;;3.33;;
69280;SDS011;56392;51.082;17.080;2023-06-05T20:50:17;11.10;;;3.45;;
69280;SDS011;56392;51.082;17.080;2023-06-05T20:55:43;11.20;;;4.10;;
69280;SDS011;56392;51.082;17.080;2023-06-05T21:01:08;7.60;;;3.60;;
69280;SDS011;56392;51.082;17.080;2023-06-05T21:06:31;9.38;;;4.03;;
69280;SDS011;56392;51.082;17.080;2023-06-05T21:11:56;11.32;;;3.90;;
69280;SDS011;56392;51.082;17.080;2023-06-05T21:17:19;11.57;;;3.87;;
69280;SDS011;56392;51.082;17.080;2023-06-05T21:22:43;11.25;;;4.15;;
69280;SDS011;56392;51.082;17.080;2023-06-05T21:28:08;8.88;;;3.78;;
69280;SDS011;56392;51.082;17.080;2023-06-05T21:33:32;11.13;;;4.30;;
69280;SDS011;56392;51.082;17.080;2023-06-05T21:38:56;10.35;;;4.53;;
69280;SDS011;56392;51.082;17.080;2023-06-05T21:44:20;12.32;;;4.20;;
69280;SDS011;56392;51.082;17.080;2023-06-05T21:49:44;9.50;;;4.43;;
69280;SDS011;56392;51.082;17.080;2023-06-05T21:55:07;13.07;;;4.07;;
69280;SDS011;56392;51.082;17.080;2023-06-05T22:00:32;9.43;;;4.70;;
69280;SDS011;56392;51.082;17.080;2023-06-05T22:05:55;12.82;;;4.50;;
69280;SDS011;56392;51.082;17.080;2023-06-05T22:11:19;10.13;;;4.53;;
69280;SDS011;56392;51.082;17.080;2023-06-05T22:16:47;12.75;;;5.72;;
69280;SDS011;56392;51.082;17.080;2023-06-05T22:22:11;10.20;;;4.60;;
69280;SDS011;56392;51.082;17.080;2023-06-05T22:27:34;10.03;;;4.47;;
69280;SDS011;56392;51.082;17.080;2023-06-05T22:32:59;9.10;;;4.50;;
69280;SDS011;56392;51.082;17.080;2023-06-05T22:38:22;9.63;;;4.30;;
69280;SDS011;56392;51.082;17.080;2023-06-05T22:43:49;13.60;;;4.60;;
69280;SDS011;56392;51.082;17.080;2023-06-05T22:49:13;10.03;;;4.63;;
69280;SDS011;56392;51.082;17.080;2023-06-05T22:54:38;10.38;;;5.03;;
69280;SDS011;56392;51.082;17.080;2023-06-05T23:00:01;10.52;;;4.90;;
69280;SDS011;56392;51.082;17.080;2023-06-05T23:05:30;8.60;;;4.63;;
69280;SDS011;56392;51.082;17.080;2023-06-05T23:10:53;9.32;;;4.80;;
69280;SDS011;56392;51.082;17.080;2023-06-05T23:16:17;8.80;;;4.50;;
69280;SDS011;56392;51.082;17.080;2023-06-05T23:21:42;9.50;;;4.80;;
69280;SDS011;56392;51.082;17.080;2023-06-05T23:27:05;10.73;;;4.70;;
69280;SDS011;56392;51.082;17.080;2023-06-05T23:32:31;8.50;;;4.38;;
69280;SDS011;56392;51.082;17.080;2023-06-05T23:37:55;9.93;;;4.80;;
69280;SDS011;56392;51.082;17.080;2023-06-05T23:43:18;9.27;;;4.70;;
69280;SDS011;56392;51.082;17.080;2023-06-05T23:48:41;10.70;;;4.80;;
69280;SDS011;56392;51.082;17.080;2023-06-05T23:54:05;8.68;;;4.85;;
69280;SDS011;56392;51.082;17.080;2023-06-05T23:59:30;11.13;;;5.10;;
